createdAt,value
2022-12-07T00:01:25.252Z,2.88
2022-12-07T00:03:54.855Z,2.90
2022-12-07T00:06:22.073Z,4.05
2022-12-07T00:08:49.245Z,3.10
2022-12-07T00:11:21.572Z,3.05
2022-12-07T00:13:52.968Z,3.25
2022-12-07T00:16:21.975Z,2.88
2022-12-07T00:18:51.395Z,2.85
2022-12-07T00:21:24.106Z,2.72
2022-12-07T00:23:52.401Z,2.63
2022-12-07T00:26:25.131Z,2.78
2022-12-07T00:28:54.692Z,2.47
2022-12-07T00:31:26.034Z,2.88
2022-12-07T00:33:53.228Z,2.92
2022-12-07T00:36:27.001Z,2.85
2022-12-07T00:38:55.628Z,2.55
2022-12-07T00:41:25.056Z,3.00
2022-12-07T00:43:52.858Z,3.30
2022-12-07T00:46:20.947Z,3.17
2022-12-07T00:48:49.264Z,2.80
2022-12-07T00:51:17.822Z,2.83
2022-12-07T00:53:45.068Z,2.67
2022-12-07T00:56:17.653Z,2.92
2022-12-07T00:58:44.673Z,2.88
2022-12-07T01:01:12.629Z,3.10
2022-12-07T01:03:39.716Z,2.55
2022-12-07T01:06:07.122Z,3.22
2022-12-07T01:08:34.414Z,3.20
2022-12-07T01:11:06.508Z,3.38
2022-12-07T01:13:35.144Z,2.65
2022-12-07T01:16:04.207Z,3.30
2022-12-07T01:18:33.071Z,3.47
2022-12-07T01:21:01.065Z,2.97
2022-12-07T01:23:28.400Z,2.75
2022-12-07T01:25:59.650Z,2.90
2022-12-07T01:28:26.838Z,2.92
2022-12-07T01:31:01.444Z,2.90
2022-12-07T01:33:30.991Z,2.90
2022-12-07T01:36:17.000Z,2.95
2022-12-07T01:38:44.854Z,2.92
2022-12-07T01:41:12.402Z,2.90
2022-12-07T01:44:11.028Z,3.30
2022-12-07T01:46:38.319Z,2.63
2022-12-07T01:49:08.532Z,2.70
2022-12-07T01:51:36.199Z,2.95
2022-12-07T01:54:03.189Z,3.00
2022-12-07T01:56:30.766Z,3.42
2022-12-07T01:59:01.156Z,3.00
2022-12-07T02:01:27.973Z,3.28
2022-12-07T02:03:55.150Z,3.10
2022-12-07T02:06:25.839Z,3.35
2022-12-07T02:08:53.454Z,2.80
2022-12-07T02:11:21.146Z,3.35
2022-12-07T02:13:48.511Z,2.88
2022-12-07T02:16:23.999Z,3.10
2022-12-07T02:19:09.430Z,3.17
2022-12-07T02:21:39.279Z,2.80
2022-12-07T02:24:18.153Z,2.60
2022-12-07T02:27:05.384Z,2.75
2022-12-07T02:29:38.842Z,2.55
2022-12-07T02:32:40.833Z,3.05
2022-12-07T02:35:13.135Z,2.95
2022-12-07T02:37:57.850Z,2.75
2022-12-07T02:40:39.487Z,3.30
2022-12-07T02:43:13.703Z,3.10
2022-12-07T02:45:42.699Z,2.47
2022-12-07T02:48:13.028Z,3.15
2022-12-07T02:50:39.811Z,2.92
2022-12-07T02:53:06.524Z,3.20
2022-12-07T02:55:42.291Z,2.97
2022-12-07T02:58:21.284Z,3.05
2022-12-07T03:01:21.516Z,3.03
2022-12-07T03:03:55.078Z,2.67
2022-12-07T03:06:32.530Z,3.10
2022-12-07T03:09:14.784Z,3.08
2022-12-07T03:12:17.936Z,2.75
2022-12-07T03:14:55.071Z,2.55
2022-12-07T03:17:28.275Z,3.30
2022-12-07T03:20:00.171Z,3.55
2022-12-07T03:22:31.919Z,3.00
2022-12-07T03:25:02.126Z,3.55
2022-12-07T03:27:36.756Z,3.53
2022-12-07T03:30:11.486Z,3.03
2022-12-07T03:32:48.344Z,2.67
2022-12-07T03:35:20.954Z,3.30
2022-12-07T03:37:51.868Z,2.83
2022-12-07T03:40:35.457Z,3.08
2022-12-07T03:43:04.471Z,3.05
2022-12-07T03:45:47.813Z,3.05
2022-12-07T03:48:31.770Z,3.08
2022-12-07T03:51:26.515Z,2.92
2022-12-07T03:54:03.396Z,3.17
2022-12-07T03:56:31.233Z,3.30
2022-12-07T03:58:57.958Z,3.42
2022-12-07T04:01:25.748Z,3.38
2022-12-07T04:03:52.867Z,3.10
2022-12-07T04:06:19.917Z,3.22
2022-12-07T04:08:46.722Z,2.45
2022-12-07T04:11:13.483Z,3.10
2022-12-07T04:13:58.871Z,3.03
2022-12-07T04:16:25.614Z,3.95
2022-12-07T04:18:52.344Z,3.08
2022-12-07T04:21:19.059Z,2.90
2022-12-07T04:23:45.819Z,3.10
2022-12-07T04:26:12.530Z,2.90
2022-12-07T04:28:39.237Z,3.15
2022-12-07T04:31:06.142Z,3.22
2022-12-07T04:33:32.916Z,3.08
2022-12-07T04:35:59.745Z,2.80
2022-12-07T04:38:26.526Z,2.38
2022-12-07T04:40:53.316Z,2.80
2022-12-07T04:43:20.049Z,3.28
2022-12-07T04:45:50.276Z,2.28
2022-12-07T04:48:17.138Z,2.45
2022-12-07T04:50:46.404Z,2.88
2022-12-07T04:53:13.408Z,3.10
2022-12-07T04:55:40.168Z,3.30
2022-12-07T04:58:06.905Z,2.90
2022-12-07T05:00:33.860Z,2.60
2022-12-07T05:03:00.630Z,2.33
2022-12-07T05:05:27.465Z,3.22
2022-12-07T05:07:54.577Z,3.35
2022-12-07T05:10:21.370Z,3.45
2022-12-07T05:12:48.281Z,3.08
2022-12-07T05:15:16.240Z,2.92
2022-12-07T05:17:43.223Z,3.55
2022-12-07T05:20:10.745Z,3.00
2022-12-07T05:22:37.491Z,3.17
2022-12-07T05:25:04.446Z,3.33
2022-12-07T05:27:31.270Z,3.83
2022-12-07T05:29:58.021Z,3.45
2022-12-07T05:32:24.777Z,2.65
2022-12-07T05:34:51.552Z,3.33
2022-12-07T05:37:18.252Z,3.75
2022-12-07T05:39:45.349Z,3.40
2022-12-07T05:42:14.913Z,3.88
2022-12-07T05:44:45.441Z,3.40
2022-12-07T05:47:14.659Z,3.65
2022-12-07T05:49:41.540Z,3.90
2022-12-07T05:52:08.841Z,3.50
2022-12-07T05:54:35.627Z,3.40
2022-12-07T05:57:02.340Z,3.78
2022-12-07T05:59:30.107Z,4.47
2022-12-07T06:02:00.110Z,3.92
2022-12-07T06:04:29.809Z,3.90
2022-12-07T06:07:08.220Z,3.97
2022-12-07T06:09:35.433Z,4.22
2022-12-07T06:12:21.634Z,4.00
2022-12-07T06:14:48.490Z,4.03
2022-12-07T06:17:15.448Z,4.28
2022-12-07T06:19:42.876Z,5.07
2022-12-07T06:22:11.564Z,4.30
2022-12-07T06:24:39.315Z,4.25
2022-12-07T06:27:06.889Z,4.72
2022-12-07T06:29:34.031Z,4.15
2022-12-07T06:32:01.384Z,4.25
2022-12-07T06:34:28.649Z,5.20
2022-12-07T06:36:56.120Z,4.22
2022-12-07T06:39:26.189Z,5.10
2022-12-07T06:41:53.289Z,5.40
2022-12-07T06:44:20.082Z,5.47
2022-12-07T06:46:47.143Z,5.05
2022-12-07T06:49:13.967Z,4.85
2022-12-07T06:51:43.406Z,4.45
2022-12-07T06:54:11.965Z,4.95
2022-12-07T06:56:38.959Z,6.00
2022-12-07T06:59:07.494Z,5.80
2022-12-07T07:01:36.166Z,5.82
2022-12-07T07:04:03.865Z,5.10
2022-12-07T07:06:30.721Z,5.43
2022-12-07T07:08:57.540Z,4.47
2022-12-07T07:11:25.022Z,5.05
2022-12-07T07:13:51.954Z,5.70
2022-12-07T07:16:19.097Z,5.78
2022-12-07T07:18:45.942Z,6.40
2022-12-07T07:21:12.688Z,5.95
2022-12-07T07:23:39.454Z,6.03
2022-12-07T07:26:06.203Z,5.20
2022-12-07T07:28:32.972Z,4.93
2022-12-07T07:30:59.764Z,4.68
2022-12-07T07:33:26.634Z,5.15
2022-12-07T07:35:53.409Z,4.32
2022-12-07T07:38:21.308Z,5.65
2022-12-07T07:40:48.166Z,5.50
2022-12-07T07:43:14.970Z,6.18
2022-12-07T07:45:41.836Z,4.55
2022-12-07T07:48:08.674Z,4.93
2022-12-07T07:50:35.459Z,5.55
2022-12-07T07:53:02.193Z,4.65
2022-12-07T07:55:29.026Z,4.85
2022-12-07T07:57:56.129Z,5.10
2022-12-07T08:00:23.294Z,4.70
2022-12-07T08:02:50.033Z,5.60
2022-12-07T08:05:17.420Z,5.80
2022-12-07T08:07:44.914Z,5.63
2022-12-07T08:10:13.722Z,5.05
2022-12-07T08:13:02.437Z,5.50
2022-12-07T08:15:30.813Z,5.07
2022-12-07T08:17:57.634Z,5.30
2022-12-07T08:20:24.475Z,5.95
2022-12-07T08:22:51.257Z,4.63
2022-12-07T08:25:19.039Z,5.68
2022-12-07T08:27:45.878Z,4.38
2022-12-07T08:30:12.856Z,4.40
2022-12-07T08:32:41.141Z,4.05
2022-12-07T08:35:09.250Z,5.10
2022-12-07T08:37:37.083Z,4.75
2022-12-07T08:40:05.903Z,4.90
2022-12-07T08:42:38.818Z,4.95
2022-12-07T08:45:10.402Z,4.50
2022-12-07T08:47:46.668Z,4.47
2022-12-07T08:50:14.019Z,4.82
2022-12-07T08:52:42.817Z,5.00
2022-12-07T08:55:12.277Z,4.40
2022-12-07T08:57:40.567Z,4.65
2022-12-07T09:00:14.794Z,4.45
2022-12-07T09:02:41.616Z,4.50
2022-12-07T09:05:14.775Z,4.43
2022-12-07T09:07:45.497Z,4.30
2022-12-07T09:10:12.576Z,5.00
2022-12-07T09:12:40.362Z,4.07
2022-12-07T09:15:07.751Z,4.80
2022-12-07T09:17:35.009Z,4.20
2022-12-07T09:20:02.483Z,4.75
2022-12-07T09:22:31.546Z,4.07
2022-12-07T09:25:02.253Z,4.25
2022-12-07T09:27:31.453Z,4.40
2022-12-07T09:29:58.160Z,4.78
2022-12-07T09:32:25.461Z,4.13
2022-12-07T09:34:52.387Z,4.10
2022-12-07T09:37:19.380Z,4.40
2022-12-07T09:39:50.086Z,3.97
2022-12-07T09:42:40.808Z,4.03
2022-12-07T09:45:13.187Z,4.57
2022-12-07T09:47:39.913Z,3.40
2022-12-07T09:50:14.063Z,4.10
2022-12-07T09:52:42.286Z,4.40
2022-12-07T09:55:13.452Z,4.32
2022-12-07T09:57:40.827Z,4.25
2022-12-07T10:00:15.226Z,4.25
2022-12-07T10:03:03.808Z,4.20
2022-12-07T10:05:45.504Z,3.55
2022-12-07T10:08:14.525Z,4.68
2022-12-07T10:10:42.228Z,5.20
2022-12-07T10:13:12.593Z,4.50
2022-12-07T10:15:51.848Z,3.80
2022-12-07T10:18:46.508Z,4.63
2022-12-07T10:21:17.331Z,4.28
2022-12-07T10:24:04.197Z,4.63
2022-12-07T10:26:36.570Z,4.85
2022-12-07T10:29:14.227Z,4.28
2022-12-07T10:31:42.345Z,4.43
2022-12-07T10:34:39.512Z,4.97
2022-12-07T10:37:14.355Z,4.43
2022-12-07T10:39:55.604Z,4.82
2022-12-07T10:42:28.073Z,5.07
2022-12-07T10:45:13.784Z,5.38
2022-12-07T10:48:30.338Z,5.30
2022-12-07T10:51:17.105Z,4.47
2022-12-07T10:53:53.097Z,3.90
2022-12-07T10:57:05.460Z,3.28
2022-12-07T11:02:26.015Z,4.88
2022-12-07T11:05:14.209Z,4.07
2022-12-07T11:07:55.076Z,4.78
2022-12-07T11:10:40.835Z,4.70
2022-12-07T11:13:10.605Z,4.50
2022-12-07T11:15:55.729Z,4.93
2022-12-07T11:18:30.560Z,5.90
2022-12-07T11:21:16.024Z,5.13
2022-12-07T11:24:03.826Z,5.30
2022-12-07T11:26:49.928Z,5.05
2022-12-07T11:29:48.473Z,5.18
2022-12-07T11:32:25.012Z,5.32
2022-12-07T11:34:58.052Z,5.05
2022-12-07T11:37:39.785Z,5.38
2022-12-07T11:40:29.107Z,5.07
2022-12-07T11:43:04.112Z,5.25
2022-12-07T11:45:34.517Z,5.63
2022-12-07T11:48:01.188Z,4.53
2022-12-07T11:50:42.312Z,5.47
2022-12-07T11:53:09.048Z,5.70
2022-12-07T11:55:57.428Z,5.35
2022-12-07T11:58:42.425Z,5.80
2022-12-07T12:01:18.100Z,5.18
2022-12-07T12:03:54.910Z,5.25
2022-12-07T12:06:22.978Z,5.68
2022-12-07T12:15:01.767Z,6.07
2022-12-07T12:17:54.426Z,5.70
2022-12-07T12:20:30.618Z,5.80
2022-12-07T12:23:01.094Z,5.18
2022-12-07T12:25:32.284Z,5.20
2022-12-07T12:28:00.908Z,5.53
2022-12-07T12:30:32.856Z,5.50
2022-12-07T12:33:06.931Z,5.00
2022-12-07T12:35:38.147Z,5.75
2022-12-07T12:38:36.808Z,6.13
2022-12-07T12:41:03.652Z,5.55
2022-12-07T12:43:47.079Z,5.40
2022-12-07T12:46:34.962Z,5.95
2022-12-07T12:49:34.855Z,5.82
2022-12-07T12:52:50.633Z,6.00
2022-12-07T12:55:22.021Z,5.47
2022-12-07T12:58:20.866Z,4.97
2022-12-07T13:00:48.853Z,6.53
2022-12-07T13:03:52.473Z,5.63
2022-12-07T13:06:28.084Z,5.35
2022-12-07T13:08:59.369Z,7.00
2022-12-07T13:11:45.406Z,6.07
2022-12-07T13:14:41.444Z,6.82
2022-12-07T13:17:33.071Z,4.50
2022-12-07T13:20:00.238Z,5.57
2022-12-07T13:22:33.123Z,6.18
2022-12-07T13:25:10.763Z,5.15
2022-12-07T13:27:41.025Z,6.28
2022-12-07T13:30:17.416Z,5.35
2022-12-07T13:32:52.071Z,5.60
2022-12-07T13:35:35.021Z,5.80
2022-12-07T13:38:30.724Z,5.93
2022-12-07T13:41:05.687Z,5.57
2022-12-07T13:43:32.433Z,5.72
2022-12-07T13:46:01.890Z,5.82
2022-12-07T13:48:46.295Z,5.18
2022-12-07T13:51:25.605Z,5.55
2022-12-07T13:54:12.944Z,6.55
2022-12-07T13:56:42.614Z,6.32
2022-12-07T13:59:16.862Z,5.63
2022-12-07T14:01:45.901Z,5.43
2022-12-07T14:04:35.785Z,5.63
2022-12-07T14:07:23.653Z,5.70
2022-12-07T14:10:06.060Z,4.95
2022-12-07T14:12:36.571Z,5.78
2022-12-07T14:15:04.683Z,5.72
2022-12-07T14:17:31.852Z,5.88
2022-12-07T14:20:01.119Z,5.15
2022-12-07T14:22:35.867Z,5.63
2022-12-07T14:25:08.220Z,5.63
2022-12-07T14:27:35.334Z,5.15
2022-12-07T14:30:03.672Z,5.50
2022-12-07T14:32:32.036Z,5.93
2022-12-07T14:35:09.487Z,4.90
2022-12-07T14:37:36.216Z,4.63
2022-12-07T14:40:03.098Z,6.07
2022-12-07T14:42:32.308Z,5.85
2022-12-07T14:44:59.882Z,5.28
2022-12-07T14:50:16.789Z,5.72
2022-12-07T14:55:34.014Z,5.45
2022-12-07T14:58:00.878Z,5.85
2022-12-07T15:00:29.137Z,5.25
2022-12-07T15:02:56.616Z,5.65
2022-12-07T15:05:24.022Z,5.25
2022-12-07T15:07:51.469Z,6.03
2022-12-07T15:10:24.235Z,5.85
2022-12-07T15:12:52.313Z,5.05
2022-12-07T15:15:19.262Z,5.15
2022-12-07T15:17:46.017Z,5.75
2022-12-07T15:20:15.086Z,4.72
2022-12-07T15:22:41.900Z,5.68
2022-12-07T15:25:13.368Z,6.32
2022-12-07T15:27:40.076Z,5.55
2022-12-07T15:30:07.601Z,6.22
2022-12-07T15:32:34.511Z,5.30
2022-12-07T15:35:01.742Z,6.00
2022-12-07T15:37:30.547Z,5.25
2022-12-07T15:40:07.198Z,5.47
2022-12-07T15:42:34.881Z,6.40
2022-12-07T15:45:07.941Z,5.70
2022-12-07T15:48:02.396Z,5.55
2022-12-07T15:50:24.407Z,5.53
2022-12-07T15:52:51.191Z,5.80
2022-12-07T15:55:18.031Z,6.40
2022-12-07T15:57:44.969Z,5.60
2022-12-07T16:00:12.280Z,5.00
2022-12-07T16:02:40.224Z,5.82
2022-12-07T16:05:07.654Z,6.10
2022-12-07T16:07:34.405Z,5.35
2022-12-07T16:10:01.299Z,5.53
2022-12-07T16:12:28.630Z,5.65
2022-12-07T16:14:55.412Z,5.78
2022-12-07T16:17:22.177Z,4.97
2022-12-07T16:19:48.945Z,5.53
2022-12-07T16:22:15.755Z,5.15
2022-12-07T16:24:42.666Z,4.15
2022-12-07T16:27:09.735Z,5.07
2022-12-07T16:29:36.507Z,6.10
2022-12-07T16:32:03.399Z,5.57
2022-12-07T16:34:30.195Z,5.45
2022-12-07T16:37:05.498Z,5.53
2022-12-07T16:39:34.300Z,4.80
2022-12-07T16:42:01.387Z,5.75
2022-12-07T16:44:28.197Z,5.90
2022-12-07T16:46:55.208Z,4.97
2022-12-07T16:49:22.164Z,4.40
2022-12-07T16:52:08.604Z,5.53
2022-12-07T16:54:38.469Z,5.32
2022-12-07T16:57:05.247Z,5.45
2022-12-07T16:59:32.534Z,5.03
2022-12-07T17:01:59.419Z,4.97
2022-12-07T17:04:26.211Z,4.93
2022-12-07T17:06:52.984Z,5.35
2022-12-07T17:09:21.502Z,5.22
2022-12-07T17:11:48.904Z,6.20
2022-12-07T17:14:34.792Z,5.78
2022-12-07T17:17:01.516Z,4.80
2022-12-07T17:19:28.281Z,5.40
2022-12-07T17:21:55.148Z,6.18
2022-12-07T17:24:22.100Z,6.03
2022-12-07T17:26:49.417Z,5.32
2022-12-07T17:29:18.359Z,5.35
2022-12-07T17:31:51.373Z,5.88
2022-12-07T17:34:19.731Z,5.75
2022-12-07T17:36:47.006Z,5.80
2022-12-07T17:39:18.498Z,5.60
2022-12-07T17:42:04.123Z,5.25
2022-12-07T17:44:31.729Z,4.82
2022-12-07T17:46:59.787Z,5.88
2022-12-07T17:49:27.793Z,5.90
2022-12-07T17:52:13.523Z,5.57
2022-12-07T17:54:40.337Z,4.55
2022-12-07T17:57:07.487Z,4.90
2022-12-07T17:59:34.584Z,5.25
2022-12-07T18:02:01.556Z,5.68
2022-12-07T18:04:28.549Z,5.10
2022-12-07T18:06:55.385Z,4.85
2022-12-07T18:09:22.814Z,5.55
2022-12-07T18:11:49.898Z,5.47
2022-12-07T18:14:17.041Z,5.82
2022-12-07T18:16:44.458Z,6.28
2022-12-07T18:19:14.819Z,4.82
2022-12-07T18:21:42.042Z,4.38
2022-12-07T18:24:11.080Z,3.60
2022-12-07T18:26:38.508Z,4.78
2022-12-07T18:29:07.084Z,4.97
2022-12-07T18:31:35.274Z,5.60
2022-12-07T18:34:12.280Z,4.93
2022-12-07T18:36:43.895Z,4.50
2022-12-07T18:39:10.791Z,5.20
2022-12-07T18:41:39.075Z,4.45
2022-12-07T18:44:07.407Z,4.78
2022-12-07T18:46:35.747Z,4.22
2022-12-07T18:49:04.116Z,4.88
2022-12-07T18:51:32.643Z,5.35
2022-12-07T18:54:01.459Z,5.20
2022-12-07T18:56:29.229Z,4.85
2022-12-07T18:59:16.899Z,4.82
2022-12-07T19:01:45.831Z,4.53
2022-12-07T19:04:12.995Z,5.30
2022-12-07T19:06:42.418Z,5.43
2022-12-07T19:09:09.581Z,4.93
2022-12-07T19:11:51.919Z,4.78
2022-12-07T19:14:30.906Z,4.63
2022-12-07T19:17:00.440Z,4.85
2022-12-07T19:19:35.222Z,4.07
2022-12-07T19:22:02.621Z,5.32
2022-12-07T19:24:29.724Z,4.68
2022-12-07T19:26:56.968Z,4.95
2022-12-07T19:29:23.724Z,5.70
2022-12-07T19:31:50.616Z,6.05
2022-12-07T19:34:17.785Z,5.03
2022-12-07T19:36:45.443Z,4.15
2022-12-07T19:39:15.132Z,4.95
2022-12-07T19:41:46.215Z,4.90
2022-12-07T19:44:22.071Z,3.87
2022-12-07T19:46:51.048Z,4.90
2022-12-07T19:49:19.313Z,4.38
2022-12-07T19:51:55.319Z,4.22
2022-12-07T19:54:24.573Z,4.22
2022-12-07T19:56:52.362Z,5.22
2022-12-07T19:59:21.179Z,4.47
2022-12-07T20:01:48.647Z,4.93
2022-12-07T20:04:22.266Z,4.60
2022-12-07T20:06:52.309Z,4.28
2022-12-07T20:09:19.589Z,3.60
2022-12-07T20:12:04.903Z,3.95
2022-12-07T20:14:32.435Z,3.72
2022-12-07T20:16:59.686Z,5.20
2022-12-07T20:19:35.426Z,4.47
2022-12-07T20:22:02.283Z,4.68
2022-12-07T20:24:29.047Z,4.05
2022-12-07T20:26:58.467Z,4.57
2022-12-07T20:29:25.524Z,3.85
2022-12-07T20:31:54.239Z,5.03
2022-12-07T20:34:21.347Z,4.93
2022-12-07T20:36:48.149Z,5.85
2022-12-07T20:39:15.197Z,5.00
2022-12-07T20:42:00.565Z,3.80
2022-12-07T20:44:27.732Z,4.30
2022-12-07T20:46:54.873Z,4.13
2022-12-07T20:49:21.925Z,3.88
2022-12-07T20:51:48.818Z,4.20
2022-12-07T20:54:18.836Z,4.57
2022-12-07T20:56:45.722Z,4.80
2022-12-07T20:59:15.299Z,4.47
2022-12-07T21:01:43.207Z,4.22
2022-12-07T21:04:12.024Z,4.63
2022-12-07T21:06:39.993Z,4.97
2022-12-07T21:09:14.207Z,3.72
2022-12-07T21:11:41.464Z,4.50
2022-12-07T21:14:08.530Z,3.90
2022-12-07T21:16:35.705Z,3.67
2022-12-07T21:19:04.512Z,4.85
2022-12-07T21:21:32.789Z,4.05
2022-12-07T21:24:03.029Z,3.45
2022-12-07T21:26:33.697Z,4.82
2022-12-07T21:29:00.841Z,4.63
2022-12-07T21:31:27.726Z,4.32
2022-12-07T21:33:54.920Z,4.10
2022-12-07T21:36:25.181Z,4.07
2022-12-07T21:38:52.201Z,4.38
2022-12-07T21:41:21.479Z,4.50
2022-12-07T21:43:49.457Z,3.90
2022-12-07T21:46:17.540Z,4.68
2022-12-07T21:48:50.240Z,4.20
2022-12-07T21:51:17.253Z,4.57
2022-12-07T21:53:43.987Z,3.20
2022-12-07T21:56:22.285Z,4.20
2022-12-07T21:58:51.191Z,5.35
2022-12-07T22:01:23.312Z,4.82
2022-12-07T22:03:51.609Z,4.30
2022-12-07T22:06:21.841Z,4.97
2022-12-07T22:08:48.956Z,4.53
2022-12-07T22:11:16.889Z,5.07
2022-12-07T22:14:09.678Z,4.80
2022-12-07T22:16:38.163Z,4.97
2022-12-07T22:19:05.931Z,5.35
2022-12-07T22:21:33.330Z,5.55
2022-12-07T22:24:00.216Z,4.68
2022-12-07T22:26:27.504Z,4.80
2022-12-07T22:28:54.362Z,4.63
2022-12-07T22:31:22.348Z,5.65
2022-12-07T22:33:50.156Z,4.93
2022-12-07T22:36:17.605Z,4.20
2022-12-07T22:38:45.557Z,5.25
2022-12-07T22:41:23.090Z,4.95
2022-12-07T22:43:50.047Z,4.70
2022-12-07T22:46:16.826Z,5.65
2022-12-07T22:48:43.544Z,5.40
2022-12-07T22:51:30.878Z,5.28
2022-12-07T22:53:59.743Z,5.57
2022-12-07T22:56:27.847Z,4.67
2022-12-07T22:58:54.821Z,5.50
2022-12-07T23:01:22.951Z,4.75
2022-12-07T23:03:50.606Z,5.82
2022-12-07T23:06:29.356Z,6.07
2022-12-07T23:08:57.821Z,5.05
2022-12-07T23:11:47.020Z,5.32
2022-12-07T23:14:20.441Z,5.43
2022-12-07T23:16:47.662Z,5.53
2022-12-07T23:19:14.455Z,5.40
2022-12-07T23:21:41.351Z,5.07
2022-12-07T23:24:08.994Z,4.82
2022-12-07T23:26:35.716Z,4.13
2022-12-07T23:29:02.408Z,5.35
2022-12-07T23:31:29.281Z,4.68
2022-12-07T23:33:56.068Z,5.38
2022-12-07T23:36:25.372Z,5.07
2022-12-07T23:38:53.915Z,6.30
2022-12-07T23:41:23.162Z,4.85
2022-12-07T23:43:50.195Z,5.07
2022-12-07T23:46:22.121Z,6.07
2022-12-07T23:48:50.493Z,5.88
2022-12-07T23:51:18.299Z,5.93
2022-12-07T23:53:46.906Z,5.40
2022-12-07T23:56:16.322Z,4.85
2022-12-07T23:58:43.425Z,5.22
